Inman, Nebraska
Current Conditions -  °F | °C
As of 6:15 PM on Sunday 23 Nov 2014 (Local Time) from KONL Reporting Station
Clear Clear  
Wind Chill: 26°   Ceiling: Unl
Heat Index: 38°   Visibility: 10mi
Dew Point: 26°   Wind: 30mph
Humidity: 61%   Direction: 310°NW
Pressure: 29.63"   Gusts: 40mph
Location:  42.38°N, 98.53°W
Report Text: KONL 240015Z AUTO 31026G35KT 10SM CLR 04/M03 A2963 RMK AO2 T00351035
Loading
Personal Weather Stations






























Interactive Weather Map New forecast layout! Learn more

10-Day Weather Forecast

Advertisements
Track Severe Weather on mobile